Terminal Aerodrome Forecast
Issued by NWS

Home | Current Version | Previous Version | Text Only | Print | Product List | Glossary On
Versions: 1 2 3 4 5 6 7 8 9 10 11 12
000
FTUS45 KABQ 311700 RRA
TAFLVS
TAF
KLVS 311741Z 3118/0118 18010G16KT P6SM SCT250
     FM311900 19015G25KT P6SM SCT200
     FM010000 19011KT P6SM FEW100 BKN200
     FM010900 20010KT P6SM SCT040 SCT090
     FM011400 20012G24KT P6SM SCT040 BKN070=

USA.gov is the U.S. government's official web portal to all federal, state and local government web resources and services.